Terminal Aerodrome Forecast
Issued by NWS

Home | Current Version | Previous Version | Text Only | Print | Product List | Glossary On
Versions: 1 2 3 4 5 6 7 8 9 10 11 12 13 14 15 16 17 18 19
000
FTUS46 KPDT 201740
TAFALW
TAF
KALW 201740Z 2018/2118 20005KT P6SM SCT050 BKN150
     FM210200 09006KT P6SM BKN050 OVC100
     FM210300 10006KT P6SM -SHSN OVC040
     FM210700 29008KT 3SM -SN OVC025
     FM211100 09006KT P6SM OVC035=

USA.gov is the U.S. government's official web portal to all federal, state and local government web resources and services.